createdAt,value
2023-02-19T00:01:29.461Z,12.60
2023-02-19T00:04:01.380Z,8.70
2023-02-19T00:06:30.494Z,9.20
2023-02-19T00:09:05.590Z,10.40
2023-02-19T00:11:34.196Z,8.50
2023-02-19T00:14:04.086Z,6.70
2023-02-19T00:16:33.280Z,10.00
2023-02-19T00:19:04.198Z,9.20
2023-02-19T00:21:35.565Z,8.90
2023-02-19T00:24:05.578Z,17.50
2023-02-19T00:26:33.844Z,13.50
2023-02-19T00:29:01.971Z,12.40
2023-02-19T00:31:34.006Z,8.90
2023-02-19T00:34:04.286Z,8.90
2023-02-19T00:36:34.637Z,10.30
2023-02-19T00:39:03.128Z,10.30
2023-02-19T00:41:31.309Z,6.80
2023-02-19T00:43:59.464Z,10.90
2023-02-19T00:46:33.936Z,11.10
2023-02-19T00:49:05.572Z,8.80
2023-02-19T00:51:34.634Z,11.30
2023-02-19T00:54:04.338Z,9.70
2023-02-19T00:56:33.875Z,7.00
2023-02-19T00:59:02.982Z,8.80
2023-02-19T01:01:32.124Z,8.80
2023-02-19T01:04:00.538Z,7.80
2023-02-19T01:06:30.923Z,8.90
2023-02-19T01:08:59.092Z,8.90
2023-02-19T01:11:28.077Z,7.20
2023-02-19T01:13:57.520Z,9.40
2023-02-19T01:16:25.973Z,8.90
2023-02-19T01:18:54.637Z,7.30
2023-02-19T01:21:23.529Z,7.20
2023-02-19T01:23:52.443Z,9.70
2023-02-19T01:26:21.689Z,7.10
2023-02-19T01:28:50.126Z,7.70
2023-02-19T01:31:19.352Z,10.10
2023-02-19T01:33:48.752Z,7.70
2023-02-19T01:36:17.036Z,8.80
2023-02-19T01:38:45.475Z,9.50
2023-02-19T01:41:16.440Z,10.80
2023-02-19T01:44:04.542Z,11.70
2023-02-19T01:46:36.495Z,10.00
2023-02-19T01:49:15.072Z,7.30
2023-02-19T01:51:48.366Z,9.80
2023-02-19T01:54:17.110Z,13.30
2023-02-19T01:56:45.626Z,10.00
2023-02-19T01:59:14.366Z,8.90
2023-02-19T02:01:44.672Z,8.90
2023-02-19T02:04:13.986Z,13.20
2023-02-19T02:06:49.331Z,11.30
2023-02-19T02:09:36.930Z,10.10
2023-02-19T02:12:09.548Z,10.90
2023-02-19T02:14:39.166Z,10.40
2023-02-19T02:17:24.310Z,9.00
2023-02-19T02:20:01.465Z,9.30
2023-02-19T02:22:52.892Z,9.90
2023-02-19T02:25:39.413Z,12.50
2023-02-19T02:28:17.520Z,12.30
2023-02-19T02:30:47.558Z,10.20
2023-02-19T02:33:16.084Z,9.80
2023-02-19T02:35:51.654Z,12.50
2023-02-19T02:38:20.825Z,11.40
2023-02-19T02:40:50.433Z,12.40
2023-02-19T02:43:18.947Z,9.90
2023-02-19T02:45:47.084Z,11.90
2023-02-19T02:48:35.306Z,11.20
2023-02-19T02:51:15.057Z,14.40
2023-02-19T02:54:17.398Z,10.50
2023-02-19T02:56:46.263Z,10.00
2023-02-19T02:59:15.024Z,12.10
2023-02-19T03:02:10.590Z,11.60
2023-02-19T03:05:36.474Z,10.00
2023-02-19T03:08:16.106Z,7.20
2023-02-19T03:10:51.792Z,9.40
2023-02-19T03:13:46.517Z,9.60
2023-02-19T03:16:39.768Z,12.30
2023-02-19T03:19:19.212Z,10.00
2023-02-19T03:21:53.088Z,12.10
2023-02-19T03:24:44.343Z,13.60
2023-02-19T03:27:13.022Z,10.60
2023-02-19T03:29:43.509Z,13.40
2023-02-19T03:32:13.889Z,11.00
2023-02-19T03:34:47.917Z,7.20
2023-02-19T03:37:25.253Z,10.00
2023-02-19T03:39:53.684Z,12.10
2023-02-19T03:42:40.549Z,9.20
2023-02-19T03:45:15.093Z,10.20
2023-02-19T03:47:44.410Z,8.90
2023-02-19T03:50:35.612Z,12.40
2023-02-19T03:53:23.410Z,6.50
2023-02-19T03:55:51.496Z,6.40
2023-02-19T03:58:24.928Z,7.30
2023-02-19T04:00:54.305Z,10.90
2023-02-19T04:03:28.659Z,10.20
2023-02-19T04:05:59.793Z,12.40
2023-02-19T04:08:28.402Z,9.80
2023-02-19T04:11:01.339Z,11.40
2023-02-19T04:13:38.729Z,8.50
2023-02-19T04:16:07.775Z,5.70
2023-02-19T04:18:42.151Z,10.10
2023-02-19T04:21:11.048Z,11.10
2023-02-19T04:23:40.977Z,9.00
2023-02-19T04:26:09.073Z,9.90
2023-02-19T04:28:37.977Z,9.60
2023-02-19T04:31:06.411Z,11.90
2023-02-19T04:33:35.170Z,10.40
2023-02-19T04:36:03.381Z,11.40
2023-02-19T04:38:31.534Z,7.90
2023-02-19T04:41:01.442Z,6.30
2023-02-19T04:43:29.920Z,7.50
2023-02-19T04:46:02.305Z,9.30
2023-02-19T04:48:31.874Z,9.30
2023-02-19T04:51:04.718Z,10.00
2023-02-19T04:53:34.095Z,11.10
2023-02-19T04:56:06.564Z,7.40
2023-02-19T04:58:35.348Z,7.50
2023-02-19T05:01:03.722Z,8.10
2023-02-19T05:03:32.218Z,10.70
2023-02-19T05:06:10.652Z,8.40
2023-02-19T05:08:39.340Z,10.30
2023-02-19T05:11:10.882Z,6.50
2023-02-19T05:13:42.598Z,7.20
2023-02-19T05:16:13.951Z,8.00
2023-02-19T05:18:42.595Z,12.00
2023-02-19T05:21:11.221Z,9.80
2023-02-19T05:23:39.954Z,12.40
2023-02-19T05:26:18.960Z,12.20
2023-02-19T05:28:48.097Z,12.40
2023-02-19T05:31:16.746Z,13.10
2023-02-19T05:35:30.826Z,12.40
2023-02-19T05:37:59.955Z,12.50
2023-02-19T05:40:28.440Z,10.90
2023-02-19T05:43:14.283Z,10.20
2023-02-19T05:45:43.282Z,10.40
2023-02-19T05:48:13.091Z,9.50
2023-02-19T05:50:41.668Z,8.70
2023-02-19T05:53:13.425Z,15.40
2023-02-19T05:55:41.797Z,10.00
2023-02-19T05:58:09.913Z,8.10
2023-02-19T06:00:38.194Z,11.50
2023-02-19T06:03:06.639Z,13.90
2023-02-19T06:05:35.250Z,11.40
2023-02-19T06:08:04.242Z,9.80
2023-02-19T06:10:33.061Z,13.00
2023-02-19T06:13:04.178Z,15.80
2023-02-19T06:15:32.980Z,16.00
2023-02-19T06:18:01.261Z,12.30
2023-02-19T06:20:30.664Z,15.90
2023-02-19T06:22:58.820Z,16.80
2023-02-19T06:25:27.430Z,17.00
2023-02-19T06:27:55.852Z,15.10
2023-02-19T06:30:24.305Z,15.20
2023-02-19T06:32:54.915Z,15.60
2023-02-19T06:35:24.667Z,15.10
2023-02-19T06:37:52.862Z,16.50
2023-02-19T06:40:21.908Z,15.50
2023-02-19T06:42:50.014Z,14.10
2023-02-19T06:45:18.189Z,16.90
2023-02-19T06:47:47.677Z,17.80
2023-02-19T06:50:15.973Z,15.50
2023-02-19T06:52:46.446Z,16.10
2023-02-19T06:55:14.575Z,20.50
2023-02-19T06:57:45.434Z,20.70
2023-02-19T07:00:14.227Z,19.20
2023-02-19T07:02:42.404Z,16.60
2023-02-19T07:05:10.652Z,16.90
2023-02-19T07:07:39.372Z,17.90
2023-02-19T07:10:07.768Z,13.80
2023-02-19T07:12:36.320Z,12.70
2023-02-19T07:15:07.936Z,17.00
2023-02-19T07:17:36.987Z,17.50
2023-02-19T07:20:05.984Z,21.40
2023-02-19T07:22:34.700Z,16.40
2023-02-19T07:25:03.033Z,15.80
2023-02-19T07:27:31.394Z,16.10
2023-02-19T07:29:59.563Z,13.70
2023-02-19T07:32:28.141Z,18.60
2023-02-19T07:34:56.585Z,15.90
2023-02-19T07:37:24.867Z,15.20
2023-02-19T07:39:53.757Z,17.70
2023-02-19T07:42:21.959Z,16.40
2023-02-19T07:44:50.935Z,15.90
2023-02-19T07:47:19.118Z,12.90
2023-02-19T07:49:47.220Z,13.30
2023-02-19T07:52:15.430Z,6.90
2023-02-19T07:54:43.551Z,12.10
2023-02-19T07:57:12.303Z,9.80
2023-02-19T07:59:41.117Z,15.20
2023-02-19T08:02:34.698Z,12.80
2023-02-19T08:05:03.082Z,7.60
2023-02-19T08:07:34.886Z,14.30
2023-02-19T08:10:22.241Z,11.90
2023-02-19T08:13:18.439Z,7.70
2023-02-19T08:15:47.049Z,9.40
2023-02-19T08:18:18.882Z,9.80
2023-02-19T08:20:47.461Z,11.50
2023-02-19T08:23:15.589Z,7.90
2023-02-19T08:25:43.960Z,7.60
2023-02-19T08:28:12.501Z,7.00
2023-02-19T08:30:41.345Z,8.80
2023-02-19T08:33:10.415Z,9.50
2023-02-19T08:35:39.342Z,13.40
2023-02-19T08:38:08.163Z,9.30
2023-02-19T08:40:37.288Z,8.00
2023-02-19T08:43:06.827Z,8.40
2023-02-19T08:45:35.547Z,12.80
2023-02-19T08:48:04.436Z,8.90
2023-02-19T08:50:34.745Z,10.30
2023-02-19T08:53:02.984Z,9.30
2023-02-19T08:55:31.151Z,8.20
2023-02-19T08:58:00.115Z,12.10
2023-02-19T09:00:28.956Z,12.10
2023-02-19T09:02:58.284Z,12.80
2023-02-19T09:05:26.419Z,10.30
2023-02-19T09:07:54.723Z,11.40
2023-02-19T09:10:23.084Z,12.90
2023-02-19T09:12:51.602Z,12.10
2023-02-19T09:15:19.810Z,11.50
2023-02-19T09:17:54.475Z,12.00
2023-02-19T09:20:26.109Z,7.70
2023-02-19T09:22:58.539Z,10.10
2023-02-19T09:25:27.125Z,11.90
2023-02-19T09:27:56.143Z,8.90
2023-02-19T09:30:25.169Z,10.20
2023-02-19T09:32:54.113Z,9.40
2023-02-19T09:35:22.344Z,9.70
2023-02-19T09:37:50.568Z,13.50
2023-02-19T09:40:21.851Z,9.20
2023-02-19T09:42:53.270Z,7.60
2023-02-19T09:45:22.756Z,9.20
2023-02-19T09:47:53.416Z,10.70
2023-02-19T09:50:22.520Z,9.40
2023-02-19T09:52:57.311Z,10.20
2023-02-19T09:55:46.033Z,9.40
2023-02-19T09:58:20.959Z,11.10
2023-02-19T10:00:49.338Z,6.90
2023-02-19T10:03:26.254Z,9.30
2023-02-19T10:05:56.601Z,11.00
2023-02-19T10:08:24.732Z,9.70
2023-02-19T10:10:54.441Z,11.90
2023-02-19T10:13:33.422Z,7.90
2023-02-19T10:16:02.278Z,7.30
2023-02-19T10:18:38.015Z,13.10
2023-02-19T10:21:06.345Z,9.00
2023-02-19T10:23:34.940Z,10.80
2023-02-19T10:26:07.600Z,13.20
2023-02-19T10:28:36.150Z,19.30
2023-02-19T10:31:11.796Z,10.90
2023-02-19T10:33:50.506Z,10.30
2023-02-19T10:36:29.859Z,11.50
2023-02-19T10:39:03.533Z,16.60
2023-02-19T10:41:33.178Z,9.40
2023-02-19T10:44:14.607Z,11.90
2023-02-19T10:46:45.370Z,6.90
2023-02-19T10:49:23.061Z,12.00
2023-02-19T10:51:51.313Z,9.20
2023-02-19T10:54:20.328Z,11.40
2023-02-19T10:56:48.562Z,8.60
2023-02-19T10:59:26.625Z,9.50
2023-02-19T11:01:57.925Z,9.40
2023-02-19T11:04:27.148Z,11.10
2023-02-19T11:06:56.178Z,9.50
2023-02-19T11:09:36.497Z,10.50
2023-02-19T11:12:09.665Z,7.70
2023-02-19T11:14:41.756Z,11.10
2023-02-19T11:17:10.216Z,11.00
2023-02-19T11:19:42.905Z,10.90
2023-02-19T11:22:30.143Z,14.80
2023-02-19T11:25:04.235Z,8.80
2023-02-19T11:27:33.160Z,14.60
2023-02-19T11:30:26.505Z,9.40
2023-02-19T11:32:54.778Z,15.40
2023-02-19T11:35:25.195Z,7.90
2023-02-19T11:37:57.261Z,10.00
2023-02-19T11:40:48.715Z,10.80
2023-02-19T11:43:44.278Z,8.90
2023-02-19T11:46:19.987Z,6.60
2023-02-19T11:48:55.026Z,7.60
2023-02-19T11:51:27.927Z,7.60
2023-02-19T11:54:11.011Z,6.40
2023-02-19T11:56:40.260Z,10.70
2023-02-19T11:59:17.482Z,7.20
2023-02-19T12:01:45.665Z,8.30
2023-02-19T12:04:20.122Z,8.30
2023-02-19T12:07:13.281Z,12.20
2023-02-19T12:09:52.566Z,11.60
2023-02-19T12:12:37.991Z,8.70
2023-02-19T12:15:24.786Z,11.20
2023-02-19T12:18:12.109Z,7.70
2023-02-19T12:21:03.046Z,15.50
2023-02-19T12:23:46.948Z,12.80
2023-02-19T12:26:19.331Z,12.80
2023-02-19T12:29:01.717Z,7.20
2023-02-19T12:31:43.123Z,14.30
2023-02-19T12:34:11.326Z,8.90
2023-02-19T12:36:44.439Z,9.30
2023-02-19T12:39:18.666Z,8.80
2023-02-19T12:41:54.338Z,9.70
2023-02-19T12:44:32.009Z,9.20
2023-02-19T12:47:02.496Z,5.80
2023-02-19T12:49:36.155Z,7.70
2023-02-19T12:52:09.964Z,10.20
2023-02-19T12:54:39.706Z,12.20
2023-02-19T12:57:15.586Z,10.10
2023-02-19T12:59:56.191Z,9.50
2023-02-19T13:02:26.668Z,7.00
2023-02-19T13:05:04.553Z,8.10
2023-02-19T13:07:37.284Z,5.10
2023-02-19T13:10:08.617Z,11.80
2023-02-19T13:12:41.023Z,10.40
2023-02-19T13:15:26.200Z,5.50
2023-02-19T13:18:20.384Z,8.00
2023-02-19T13:20:49.052Z,9.10
2023-02-19T13:23:47.981Z,5.90
2023-02-19T13:26:52.153Z,4.70
2023-02-19T13:29:20.337Z,7.40
2023-02-19T13:32:06.745Z,4.10
2023-02-19T13:34:48.134Z,6.90
2023-02-19T13:37:16.523Z,8.10
2023-02-19T13:39:55.479Z,4.80
2023-02-19T13:42:48.530Z,7.20
2023-02-19T13:45:23.928Z,9.30
2023-02-19T13:47:57.967Z,6.60
2023-02-19T13:50:36.560Z,12.20
2023-02-19T13:53:36.689Z,10.30
2023-02-19T13:56:11.558Z,9.20
2023-02-19T13:59:11.163Z,8.30
2023-02-19T14:01:55.773Z,6.70
2023-02-19T14:04:43.069Z,8.10
2023-02-19T14:07:15.311Z,7.50
2023-02-19T14:12:32.202Z,10.10
2023-02-19T14:15:23.375Z,9.30
2023-02-19T14:18:02.817Z,11.60
2023-02-19T14:20:47.560Z,9.60
2023-02-19T14:23:25.263Z,5.90
2023-02-19T14:25:59.702Z,9.00
2023-02-19T14:28:38.015Z,9.50
2023-02-19T14:31:19.464Z,9.60
2023-02-19T14:33:51.430Z,13.70
2023-02-19T14:36:28.098Z,9.60
2023-02-19T14:38:58.341Z,9.90
2023-02-19T14:41:27.906Z,10.40
2023-02-19T14:44:01.156Z,12.00
2023-02-19T14:46:35.247Z,10.40
2023-02-19T14:49:06.319Z,11.40
2023-02-19T14:51:37.554Z,9.50
2023-02-19T14:54:15.784Z,13.00
2023-02-19T14:56:50.973Z,11.70
2023-02-19T14:59:25.309Z,7.80
2023-02-19T15:02:06.690Z,9.90
2023-02-19T15:04:51.404Z,10.70
2023-02-19T15:07:38.254Z,13.00
2023-02-19T15:10:06.872Z,11.30
2023-02-19T15:12:39.524Z,11.30
2023-02-19T15:15:08.108Z,28.60
2023-02-19T15:17:36.544Z,11.00
2023-02-19T15:20:06.059Z,7.90
2023-02-19T15:22:34.640Z,8.30
2023-02-19T15:25:03.314Z,13.00
2023-02-19T15:27:33.927Z,10.50
2023-02-19T15:30:02.302Z,15.40
2023-02-19T15:32:32.744Z,22.00
2023-02-19T15:35:01.690Z,8.40
2023-02-19T15:37:31.133Z,11.90
2023-02-19T15:40:00.419Z,12.50
2023-02-19T15:42:30.381Z,13.60
2023-02-19T15:45:04.133Z,16.30
2023-02-19T15:47:43.544Z,16.20
2023-02-19T15:50:11.855Z,19.40
2023-02-19T15:52:40.398Z,20.90
2023-02-19T15:55:12.731Z,21.30
2023-02-19T15:57:42.902Z,19.90
2023-02-19T16:00:14.588Z,30.60
2023-02-19T16:02:42.828Z,30.30
2023-02-19T16:05:11.871Z,28.80
2023-02-19T16:07:40.081Z,33.80
2023-02-19T16:10:19.993Z,25.10
2023-02-19T16:12:58.103Z,26.30
2023-02-19T16:15:29.801Z,25.70
2023-02-19T16:17:58.741Z,33.20
2023-02-19T16:20:31.328Z,31.40
2023-02-19T16:23:03.728Z,37.80
2023-02-19T16:25:41.788Z,42.10
2023-02-19T16:28:11.496Z,42.70
2023-02-19T16:30:40.059Z,61.10
2023-02-19T16:33:27.207Z,50.80
2023-02-19T16:35:55.335Z,57.70
2023-02-19T16:38:23.480Z,62.00
2023-02-19T16:40:53.243Z,62.10
2023-02-19T16:43:21.633Z,66.70
2023-02-19T16:45:50.441Z,52.20
2023-02-19T16:48:18.564Z,54.50
2023-02-19T16:50:49.486Z,61.20
2023-02-19T16:53:24.858Z,55.70
2023-02-19T16:55:53.113Z,45.50
2023-02-19T16:58:21.560Z,33.80
2023-02-19T17:00:49.851Z,35.20
2023-02-19T17:03:19.350Z,32.30
2023-02-19T17:05:47.825Z,30.40
2023-02-19T17:08:35.170Z,36.50
2023-02-19T17:11:07.300Z,32.60
2023-02-19T17:13:36.466Z,24.40
2023-02-19T17:16:04.845Z,29.50
2023-02-19T17:18:35.925Z,28.30
2023-02-19T17:21:12.851Z,22.40
2023-02-19T17:23:41.209Z,27.20
2023-02-19T17:26:21.382Z,22.90
2023-02-19T17:29:02.264Z,28.90
2023-02-19T17:31:30.857Z,16.10
2023-02-19T17:33:59.428Z,18.30
2023-02-19T17:36:30.940Z,18.60
2023-02-19T17:38:59.558Z,20.80
2023-02-19T17:41:28.018Z,17.50
2023-02-19T17:43:56.117Z,16.80
2023-02-19T17:46:25.332Z,16.30
2023-02-19T17:48:54.058Z,14.40
2023-02-19T17:53:35.206Z,18.10
2023-02-19T17:56:04.339Z,13.30
2023-02-19T17:58:34.075Z,14.40
2023-02-19T18:01:02.747Z,15.40
2023-02-19T18:03:31.440Z,20.20
2023-02-19T18:06:00.137Z,15.20
2023-02-19T18:08:30.382Z,14.00
2023-02-19T18:10:59.585Z,20.80
2023-02-19T18:13:30.214Z,18.60
2023-02-19T18:15:58.586Z,22.50
2023-02-19T18:18:27.247Z,15.50
2023-02-19T18:20:57.277Z,20.80
2023-02-19T18:23:26.067Z,23.90
2023-02-19T18:25:55.107Z,17.00
2023-02-19T18:28:23.330Z,22.10
2023-02-19T18:30:51.712Z,22.00
2023-02-19T18:33:20.199Z,22.30
2023-02-19T18:35:50.359Z,18.10
2023-02-19T18:38:19.729Z,17.50
2023-02-19T18:40:48.120Z,21.10
2023-02-19T18:43:17.440Z,15.70
2023-02-19T18:45:47.279Z,17.30
2023-02-19T18:48:15.652Z,17.00
2023-02-19T18:50:44.294Z,18.50
2023-02-19T18:53:14.068Z,14.00
2023-02-19T18:55:42.860Z,17.60
2023-02-19T18:58:11.226Z,22.70
2023-02-19T19:00:40.549Z,13.20
2023-02-19T19:03:09.003Z,13.30
2023-02-19T19:05:37.800Z,16.50
2023-02-19T19:08:06.454Z,18.10
2023-02-19T19:10:34.696Z,15.40
2023-02-19T19:13:03.686Z,18.70
2023-02-19T19:15:33.213Z,16.80
2023-02-19T19:18:02.869Z,13.70
2023-02-19T19:20:31.260Z,20.10
2023-02-19T19:22:59.694Z,22.30
2023-02-19T19:25:28.056Z,20.80
2023-02-19T19:27:56.861Z,24.90
2023-02-19T19:30:26.385Z,23.30
2023-02-19T19:32:56.081Z,26.50
2023-02-19T19:35:26.866Z,24.30
2023-02-19T19:37:55.271Z,24.30
2023-02-19T19:40:23.482Z,22.40
2023-02-19T19:42:52.498Z,23.60
2023-02-19T19:45:20.893Z,23.70
2023-02-19T19:47:49.327Z,20.60
2023-02-19T19:50:18.526Z,21.50
2023-02-19T19:52:47.679Z,17.50
2023-02-19T19:55:16.655Z,16.70
2023-02-19T19:57:44.929Z,20.50
2023-02-19T20:00:14.796Z,19.20
2023-02-19T20:02:45.388Z,14.30
2023-02-19T20:05:17.868Z,15.40
2023-02-19T20:07:46.345Z,16.10
2023-02-19T20:10:16.058Z,12.20
2023-02-19T20:12:44.770Z,18.20
2023-02-19T20:15:13.230Z,19.10
2023-02-19T20:17:41.661Z,18.80
2023-02-19T20:20:10.358Z,18.40
2023-02-19T20:22:39.533Z,19.60
2023-02-19T20:25:08.241Z,15.00
2023-02-19T20:27:36.905Z,20.20
2023-02-19T20:30:06.021Z,19.50
2023-02-19T20:32:34.658Z,14.70
2023-02-19T20:35:03.207Z,16.10
2023-02-19T20:37:34.024Z,20.30
2023-02-19T20:40:02.485Z,14.40
2023-02-19T20:42:31.718Z,13.30
2023-02-19T20:45:00.202Z,19.10
2023-02-19T20:47:28.814Z,17.80
2023-02-19T20:49:59.376Z,17.00
2023-02-19T20:52:27.538Z,17.10
2023-02-19T20:54:56.128Z,16.20
2023-02-19T20:57:24.372Z,16.60
2023-02-19T20:59:53.010Z,16.20
2023-02-19T21:02:23.280Z,18.60
2023-02-19T21:04:51.589Z,20.20
2023-02-19T21:07:21.215Z,15.30
2023-02-19T21:09:49.898Z,20.80
2023-02-19T21:12:18.623Z,14.70
2023-02-19T21:14:48.232Z,15.60
2023-02-19T21:17:16.530Z,20.90
2023-02-19T21:19:44.728Z,20.80
2023-02-19T21:22:13.112Z,18.50
2023-02-19T21:24:43.481Z,20.70
2023-02-19T21:27:11.732Z,22.00
2023-02-19T21:29:39.882Z,20.20
2023-02-19T21:32:08.538Z,25.80
2023-02-19T21:34:38.145Z,25.00
2023-02-19T21:37:06.748Z,20.30
2023-02-19T21:39:35.603Z,21.30
2023-02-19T21:42:05.024Z,26.20
2023-02-19T21:44:35.380Z,25.50
2023-02-19T21:47:03.578Z,27.20
2023-02-19T21:49:31.969Z,26.10
2023-02-19T21:52:00.474Z,19.40
2023-02-19T21:54:28.851Z,22.20
2023-02-19T21:56:57.692Z,20.00
2023-02-19T21:59:26.423Z,16.90
2023-02-19T22:01:54.603Z,23.60
2023-02-19T22:04:24.655Z,19.80
2023-02-19T22:06:56.535Z,19.90
2023-02-19T22:09:26.357Z,14.20
2023-02-19T22:11:55.202Z,18.90
2023-02-19T22:14:23.489Z,24.20
2023-02-19T22:16:53.772Z,19.90
2023-02-19T22:19:22.422Z,19.20
2023-02-19T22:21:50.642Z,19.80
2023-02-19T22:24:20.110Z,21.00
2023-02-19T22:26:51.264Z,20.00
2023-02-19T22:29:19.688Z,19.40
2023-02-19T22:31:49.319Z,23.80
2023-02-19T22:34:17.744Z,18.70
2023-02-19T22:36:46.098Z,23.80
2023-02-19T22:39:34.829Z,22.30
2023-02-19T22:42:03.908Z,20.50
2023-02-19T22:44:32.331Z,19.40
2023-02-19T22:47:03.763Z,23.50
2023-02-19T22:49:32.891Z,23.40
2023-02-19T22:52:05.325Z,21.60
2023-02-19T22:54:35.482Z,20.60
2023-02-19T22:57:03.697Z,20.70
2023-02-19T22:59:32.063Z,19.00
2023-02-19T23:02:00.284Z,20.20
2023-02-19T23:04:28.765Z,21.90
2023-02-19T23:06:57.023Z,22.80
2023-02-19T23:09:26.060Z,20.50
2023-02-19T23:12:03.473Z,21.50
2023-02-19T23:14:33.606Z,18.50
2023-02-19T23:17:01.801Z,19.70
2023-02-19T23:19:32.690Z,18.80
2023-02-19T23:22:01.998Z,22.00
2023-02-19T23:24:30.778Z,22.50
2023-02-19T23:27:00.699Z,21.60
2023-02-19T23:29:30.966Z,20.30
2023-02-19T23:32:00.488Z,20.20
2023-02-19T23:34:29.481Z,22.10
2023-02-19T23:37:00.376Z,20.50
2023-02-19T23:39:28.684Z,18.30
2023-02-19T23:42:02.209Z,20.00
2023-02-19T23:44:30.812Z,20.80
2023-02-19T23:46:58.901Z,16.00
2023-02-19T23:49:28.084Z,19.80
2023-02-19T23:51:56.964Z,21.90
2023-02-19T23:54:25.176Z,19.80
2023-02-19T23:56:53.760Z,19.30
2023-02-19T23:59:22.112Z,17.80
